British Envoy — MNAN4 — position and weather

sailwx.info

Track history (hours):
 
Tides and Currents Weather Stations Pressure Air Temp Water Temp Dewpoint Dewpoint Depression Visibility Wind Speed Wind Dir Waves Ship Positions

British Envoy

Last reported at 2014-Jul-23 13:34 UTC. Time now 2014-Jul-23 13:57 UTC.
Position S 34°44' E 018°49'.

Length 184.2 m; beam 27.4 m; draft 11.3 m.

Type: Tanker. MMSI: 235011280.

Date/timePositionNaut miles runAvg speedWind from/ knotsBaromVisibWave heightAir tempDewpointWater temp
2014-Jul-23 13:34S 34°44' E 018°49'30712.6
2014-Jul-22 13:10S 34°23' E 025°02'100 3.9
2014-Jul-21 11:26S 33°54' E 026°57'1414.0
2014-Jul-21 10:27S 33°50' E 027°13'293 5.8
2014-Jul-19 07:32S 30°13' E 031°05'8 8.2
2014-Jul-19 06:33S 30°09' E 031°13'1312.7
2014-Jul-19 05:33S 30°19' E 031°05'1210.8
2014-Jul-19 04:28S 30°10' E 031°13'2 1.7
2014-Jul-19 03:33S 30°09' E 031°11'1313.3
2014-Jul-19 02:33S 30°21' E 031°03'9 4.3
2014-Jul-19 00:33S 30°13' E 031°08'1212.3
2014-Jul-18 23:33S 30°01' E 031°08'1010.1
2014-Jul-18 22:33S 29°51' E 031°05'3 3.0
2014-Jul-18 21:33S 29°53' E 031°02'  
2014-Jul-15 17:33S 29°53' E 031°02'5 5.3
2014-Jul-15 16:33S 29°50' E 031°07'2 2.1
2014-Jul-15 15:32S 29°51' E 031°08'1 1.4
2014-Jul-15 14:33S 29°51' E 031°10'1 1.3
2014-Jul-15 13:33S 29°49' E 031°11'2 1.9
2014-Jul-15 12:33S 29°49' E 031°08'1 1.1
2014-Jul-15 11:33S 29°49' E 031°10'1 0.8
2014-Jul-15 10:33S 29°49' E 031°11'2 1.6
2014-Jul-15 09:33S 29°50' E 031°09'1 1.1
2014-Jul-15 08:33S 29°50' E 031°10'1 1.1
2014-Jul-15 07:33S 29°51' E 031°11'1 0.9
2014-Jul-15 06:33S 29°51' E 031°12'9 9.0
2014-Jul-15 05:33S 29°59' E 031°09'1413.7
2014-Jul-15 04:33S 30°13' E 031°05'1613.5
2014-Jul-15 03:22S 30°26' E 030°55'175 9.6
2014-Jul-14 09:11S 32°41' E 028°45'16111.3
2014-Jul-13 19:00S 34°12' E 026°06'   260 / 361025.210.8 2.015.011.316.0
Track history (hours):
 
Tides and Currents Weather Stations Pressure Air Temp Water Temp Dewpoint Dewpoint Depression Visibility Wind Speed Wind Dir Waves Ship Positions

British Envoy

Last reported at 2014-Jul-23 13:34 UTC. Time now 2014-Jul-23 13:57 UTC.
Position S 34°44' E 018°49'.

Length 184.2 m; beam 27.4 m; draft 11.3 m.

Type: Tanker. MMSI: 235011280.

Date/timePositionNaut miles runAvg speedWind from/ knotsBaromVisibWave heightAir tempDewpointWater temp
2014-Jul-23 13:34S 34°44' E 018°49'30712.6
2014-Jul-22 13:10S 34°23' E 025°02'100 3.9
2014-Jul-21 11:26S 33°54' E 026°57'1414.0
2014-Jul-21 10:27S 33°50' E 027°13'293 5.8
2014-Jul-19 07:32S 30°13' E 031°05'8 8.2
2014-Jul-19 06:33S 30°09' E 031°13'1312.7
2014-Jul-19 05:33S 30°19' E 031°05'1210.8
2014-Jul-19 04:28S 30°10' E 031°13'2 1.7
2014-Jul-19 03:33S 30°09' E 031°11'1313.3
2014-Jul-19 02:33S 30°21' E 031°03'9 4.3
2014-Jul-19 00:33S 30°13' E 031°08'1212.3
2014-Jul-18 23:33S 30°01' E 031°08'1010.1
2014-Jul-18 22:33S 29°51' E 031°05'3 3.0
2014-Jul-18 21:33S 29°53' E 031°02'  
2014-Jul-15 17:33S 29°53' E 031°02'5 5.3
2014-Jul-15 16:33S 29°50' E 031°07'2 2.1
2014-Jul-15 15:32S 29°51' E 031°08'1 1.4
2014-Jul-15 14:33S 29°51' E 031°10'1 1.3
2014-Jul-15 13:33S 29°49' E 031°11'2 1.9
2014-Jul-15 12:33S 29°49' E 031°08'1 1.1
2014-Jul-15 11:33S 29°49' E 031°10'1 0.8
2014-Jul-15 10:33S 29°49' E 031°11'2 1.6
2014-Jul-15 09:33S 29°50' E 031°09'1 1.1
2014-Jul-15 08:33S 29°50' E 031°10'1 1.1
2014-Jul-15 07:33S 29°51' E 031°11'1 0.9
2014-Jul-15 06:33S 29°51' E 031°12'9 9.0
2014-Jul-15 05:33S 29°59' E 031°09'1413.7
2014-Jul-15 04:33S 30°13' E 031°05'1613.5
2014-Jul-15 03:22S 30°26' E 030°55'175 9.6
2014-Jul-14 09:11S 32°41' E 028°45'16111.3
2014-Jul-13 19:00S 34°12' E 026°06'   260 / 361025.210.8 2.015.011.316.0

Dump ship's entire track history